createdAt,value
2023-05-07T00:01:24.195Z,102846.31
2023-05-07T00:03:51.086Z,102842.66
2023-05-07T00:06:18.268Z,102848.69
2023-05-07T00:08:44.956Z,102849.50
2023-05-07T00:11:11.680Z,102847.72
2023-05-07T00:13:38.471Z,102846.75
2023-05-07T00:16:06.257Z,102844.00
2023-05-07T00:18:32.980Z,102845.66
2023-05-07T00:20:59.653Z,102844.69
2023-05-07T00:23:26.421Z,102856.88
2023-05-07T00:25:53.395Z,102856.88
2023-05-07T00:28:20.096Z,102850.66
2023-05-07T00:30:46.782Z,102853.25
2023-05-07T00:33:13.617Z,102852.31
2023-05-07T00:35:40.358Z,102848.72
2023-05-07T00:38:07.046Z,102850.50
2023-05-07T00:40:33.834Z,102850.47
2023-05-07T00:43:01.089Z,102847.00
2023-05-07T00:45:29.507Z,102856.50
2023-05-07T00:48:02.123Z,102849.25
2023-05-07T00:50:29.295Z,102849.84
2023-05-07T00:52:56.498Z,102847.06
2023-05-07T00:55:24.571Z,102854.94
2023-05-07T00:57:52.254Z,102845.31
2023-05-07T01:00:20.057Z,102847.94
2023-05-07T01:02:48.027Z,102841.00
2023-05-07T01:05:18.653Z,102844.59
2023-05-07T01:07:46.735Z,102850.66
2023-05-07T01:10:13.935Z,102858.38
2023-05-07T01:12:42.425Z,102845.06
2023-05-07T01:15:10.661Z,102850.91
2023-05-07T01:17:39.179Z,102852.53
2023-05-07T01:20:08.390Z,102853.31
2023-05-07T01:22:37.993Z,102854.22
2023-05-07T01:25:06.154Z,102851.66
2023-05-07T01:27:34.703Z,102858.56
2023-05-07T01:30:01.433Z,102859.44
2023-05-07T01:32:38.502Z,102857.63
2023-05-07T01:35:08.579Z,102856.66
2023-05-07T01:37:35.319Z,102857.47
2023-05-07T01:40:03.775Z,102859.13
2023-05-07T01:42:30.850Z,102857.97
2023-05-07T01:44:57.700Z,102859.56
2023-05-07T01:47:26.307Z,102866.34
2023-05-07T01:49:54.550Z,102866.22
2023-05-07T01:52:21.233Z,102866.91
2023-05-07T01:54:47.942Z,102871.28
2023-05-07T01:57:14.624Z,102871.28
2023-05-07T01:59:41.321Z,102874.78
2023-05-07T02:02:08.208Z,102880.13
2023-05-07T02:04:34.998Z,102873.22
2023-05-07T02:07:01.687Z,102866.31
2023-05-07T02:09:28.357Z,102874.28
2023-05-07T02:11:55.062Z,102875.19
2023-05-07T02:14:21.742Z,102868.16
2023-05-07T02:16:48.669Z,102869.81
2023-05-07T02:19:16.191Z,102870.53
2023-05-07T02:21:42.972Z,102882.72
2023-05-07T02:24:09.894Z,102879.13
2023-05-07T02:26:36.607Z,102872.97
2023-05-07T02:29:03.566Z,102882.63
2023-05-07T02:31:30.343Z,102882.56
2023-05-07T02:33:57.151Z,102872.88
2023-05-07T02:36:23.828Z,102876.22
2023-05-07T02:38:50.501Z,102881.47
2023-05-07T02:41:17.180Z,102873.56
2023-05-07T02:43:43.877Z,102872.59
2023-05-07T02:46:11.237Z,102869.97
2023-05-07T02:48:38.032Z,102877.84
2023-05-07T02:51:05.301Z,102878.78
2023-05-07T02:53:32.348Z,102874.44
2023-05-07T02:56:01.287Z,102882.13
2023-05-07T02:58:28.130Z,102888.91
2023-05-07T03:00:55.958Z,102889.63
2023-05-07T03:03:22.985Z,102890.44
2023-05-07T03:05:49.763Z,102886.06
2023-05-07T03:08:16.544Z,102886.94
2023-05-07T03:10:43.310Z,102888.78
2023-05-07T03:13:10.184Z,102881.00
2023-05-07T03:15:37.598Z,102884.53
2023-05-07T03:18:04.510Z,102881.06
2023-05-07T03:20:31.456Z,102881.97
2023-05-07T03:22:58.235Z,102883.75
2023-05-07T03:25:25.150Z,102883.75
2023-05-07T03:27:52.002Z,102888.09
2023-05-07T03:30:19.833Z,102891.59
2023-05-07T03:32:47.104Z,102879.25
2023-05-07T03:35:13.855Z,102887.16
2023-05-07T03:37:40.981Z,102891.59
2023-05-07T03:40:09.335Z,102898.59
2023-05-07T03:42:36.215Z,102900.47
2023-05-07T03:45:03.098Z,102897.91
2023-05-07T03:47:29.857Z,102904.03
2023-05-07T03:49:56.962Z,102900.34
2023-05-07T03:52:26.970Z,102889.72
2023-05-07T03:54:54.679Z,102903.66
2023-05-07T03:57:21.893Z,102904.63
2023-05-07T03:59:48.831Z,102903.09
2023-05-07T04:02:15.657Z,102903.06
2023-05-07T04:04:42.401Z,102902.19
2023-05-07T04:07:09.198Z,102905.72
2023-05-07T04:09:35.900Z,102902.28
2023-05-07T04:12:02.641Z,102908.44
2023-05-07T04:14:29.385Z,102902.44
2023-05-07T04:16:56.206Z,102907.00
2023-05-07T04:19:22.924Z,102906.19
2023-05-07T04:21:49.983Z,102912.44
2023-05-07T04:24:17.083Z,102916.13
2023-05-07T04:26:43.764Z,102911.84
2023-05-07T04:29:10.526Z,102914.47
2023-05-07T04:31:37.323Z,102909.34
2023-05-07T04:34:04.056Z,102905.94
2023-05-07T04:36:31.674Z,102911.31
2023-05-07T04:38:58.370Z,102918.38
2023-05-07T04:41:25.065Z,102922.84
2023-05-07T04:43:52.649Z,102920.41
2023-05-07T04:46:19.380Z,102920.63
2023-05-07T04:48:46.569Z,102930.44
2023-05-07T04:51:13.553Z,102920.97
2023-05-07T04:53:40.842Z,102915.97
2023-05-07T04:56:07.865Z,102921.50
2023-05-07T04:58:34.574Z,102922.63
2023-05-07T05:01:01.713Z,102928.09
2023-05-07T05:03:28.652Z,102922.34
2023-05-07T05:05:55.436Z,102925.38
2023-05-07T05:08:22.207Z,102930.13
2023-05-07T05:10:51.030Z,102926.91
2023-05-07T05:13:18.043Z,102932.47
2023-05-07T05:15:45.080Z,102933.59
2023-05-07T05:18:11.745Z,102933.91
2023-05-07T05:20:38.443Z,102925.38
2023-05-07T05:23:05.242Z,102936.19
2023-05-07T05:25:32.147Z,102931.09
2023-05-07T05:27:58.887Z,102931.34
2023-05-07T05:30:25.838Z,102928.03
2023-05-07T05:32:52.515Z,102935.25
2023-05-07T05:35:19.264Z,102926.63
2023-05-07T05:37:45.984Z,102929.47
2023-05-07T05:40:13.364Z,102923.53
2023-05-07T05:42:40.872Z,102939.50
2023-05-07T05:45:08.195Z,102930.00
2023-05-07T05:47:34.988Z,102931.00
2023-05-07T05:50:01.719Z,102927.63
2023-05-07T05:52:28.443Z,102930.41
2023-05-07T05:54:55.231Z,102930.56
2023-05-07T05:57:22.145Z,102930.69
2023-05-07T05:59:48.933Z,102929.88
2023-05-07T06:02:15.838Z,102929.06
2023-05-07T06:04:44.054Z,102928.31
2023-05-07T06:07:10.874Z,102931.09
2023-05-07T06:09:37.515Z,102927.75
2023-05-07T06:12:04.389Z,102927.03
2023-05-07T06:14:31.343Z,102932.44
2023-05-07T06:16:58.622Z,102936.13
2023-05-07T06:19:27.604Z,102938.94
2023-05-07T06:21:54.307Z,102937.28
2023-05-07T06:24:21.018Z,102935.50
2023-05-07T06:26:47.723Z,102940.84
2023-05-07T06:29:14.429Z,102940.94
2023-05-07T06:31:41.305Z,102944.63
2023-05-07T06:34:08.564Z,102942.00
2023-05-07T06:36:35.505Z,102940.19
2023-05-07T06:39:02.464Z,102934.97
2023-05-07T06:41:29.146Z,102931.56
2023-05-07T06:43:55.827Z,102933.41
2023-05-07T06:46:22.531Z,102927.34
2023-05-07T06:48:49.241Z,102935.38
2023-05-07T06:51:15.981Z,102938.03
2023-05-07T06:53:42.666Z,102938.03
2023-05-07T06:56:09.322Z,102935.41
2023-05-07T06:58:36.066Z,102941.66
2023-05-07T07:01:02.807Z,102942.63
2023-05-07T07:03:29.537Z,102942.69
2023-05-07T07:05:56.236Z,102933.06
2023-05-07T07:08:23.692Z,102925.19
2023-05-07T07:10:50.515Z,102941.03
2023-05-07T07:13:17.399Z,102933.16
2023-05-07T07:15:44.718Z,102931.38
2023-05-07T07:18:11.857Z,102930.53
2023-05-07T07:20:38.686Z,102937.66
2023-05-07T07:23:05.818Z,102937.75
2023-05-07T07:25:32.926Z,102934.44
2023-05-07T07:27:59.558Z,102927.59
2023-05-07T07:30:27.156Z,102924.34
2023-05-07T07:32:54.187Z,102922.66
2023-05-07T07:35:20.902Z,102918.34
2023-05-07T07:37:50.920Z,102914.84
2023-05-07T07:40:17.630Z,102911.31
2023-05-07T07:42:44.345Z,102918.38
2023-05-07T07:45:11.659Z,102911.31
2023-05-07T07:47:38.417Z,102913.06
2023-05-07T07:50:05.813Z,102910.44
2023-05-07T07:52:32.474Z,102914.84
2023-05-07T07:54:59.147Z,102909.53
2023-05-07T07:57:25.912Z,102908.66
2023-05-07T07:59:52.585Z,102906.91
2023-05-07T08:02:19.498Z,102910.44
2023-05-07T08:04:46.551Z,102912.22
2023-05-07T08:07:13.350Z,102908.69
2023-05-07T08:09:41.064Z,102905.16
2023-05-07T08:12:08.431Z,102902.53
2023-05-07T08:14:36.019Z,102909.63
2023-05-07T08:17:02.786Z,102903.44
2023-05-07T08:19:29.590Z,102907.84
2023-05-07T08:21:56.641Z,102906.94
2023-05-07T08:24:23.384Z,102900.75
2023-05-07T08:26:50.706Z,102903.41
2023-05-07T08:29:17.355Z,102904.31
2023-05-07T08:31:44.073Z,102897.25
2023-05-07T08:34:10.838Z,102899.03
2023-05-07T08:36:37.496Z,102906.97
2023-05-07T08:39:04.521Z,102901.69
2023-05-07T08:41:32.316Z,102896.38
2023-05-07T08:44:01.213Z,102893.72
2023-05-07T08:46:32.970Z,102901.69
2023-05-07T08:48:59.788Z,102895.47
2023-05-07T08:51:26.746Z,102894.63
2023-05-07T08:53:53.442Z,102895.47
2023-05-07T08:56:22.463Z,102895.47
2023-05-07T08:58:49.579Z,102892.84
2023-05-07T09:01:18.022Z,102885.75
2023-05-07T09:03:48.412Z,102878.69
2023-05-07T09:06:16.427Z,102880.44
2023-05-07T09:08:50.192Z,102882.22
2023-05-07T09:11:16.841Z,102882.19
2023-05-07T09:13:43.852Z,102883.03
2023-05-07T09:16:14.431Z,102877.72
2023-05-07T09:18:45.931Z,102878.59
2023-05-07T09:21:16.320Z,102873.28
2023-05-07T09:23:43.200Z,102874.16
2023-05-07T09:26:15.671Z,102878.56
2023-05-07T09:28:43.149Z,102870.56
2023-05-07T09:31:11.049Z,102879.34
2023-05-07T09:33:38.499Z,102874.84
2023-05-07T09:36:07.069Z,102874.75
2023-05-07T09:38:34.984Z,102864.88
2023-05-07T09:41:13.091Z,102868.34
2023-05-07T09:43:41.264Z,102868.34
2023-05-07T09:46:12.608Z,102862.19
2023-05-07T09:48:41.579Z,102873.72
2023-05-07T09:51:15.739Z,102872.81
2023-05-07T09:53:44.296Z,102870.91
2023-05-07T09:56:12.192Z,102867.22
2023-05-07T09:58:42.508Z,102867.13
2023-05-07T10:01:11.548Z,102863.50
2023-05-07T10:03:40.857Z,102864.22
2023-05-07T10:06:09.480Z,102869.44
2023-05-07T10:08:37.647Z,102864.06
2023-05-07T10:11:06.113Z,102855.03
2023-05-07T10:13:36.763Z,102840.00
2023-05-07T10:16:06.585Z,102845.41
2023-05-07T10:18:34.632Z,102848.16
2023-05-07T10:21:16.617Z,102838.34
2023-05-07T10:23:46.518Z,102840.78
2023-05-07T10:26:14.633Z,102837.22
2023-05-07T10:28:45.949Z,102843.50
2023-05-07T10:31:36.097Z,102839.94
2023-05-07T10:34:08.984Z,102835.50
2023-05-07T10:36:38.275Z,102831.97
2023-05-07T10:39:07.332Z,102825.50
2023-05-07T10:41:34.088Z,102823.56
2023-05-07T10:44:03.214Z,102819.91
2023-05-07T10:46:30.451Z,102818.66
2023-05-07T10:49:03.921Z,102822.06
2023-05-07T10:51:32.503Z,102830.72
2023-05-07T10:54:11.696Z,102823.50
2023-05-07T10:56:39.159Z,102825.31
2023-05-07T10:59:32.470Z,102829.75
2023-05-07T11:02:05.228Z,102824.19
2023-05-07T11:04:35.930Z,102832.84
2023-05-07T11:07:13.593Z,102828.06
2023-05-07T11:09:57.050Z,102818.84
2023-05-07T11:12:39.444Z,102824.00
2023-05-07T11:15:10.962Z,102818.53
2023-05-07T11:17:54.114Z,102825.44
2023-05-07T11:20:21.552Z,102825.44
2023-05-07T11:22:49.086Z,102819.03
2023-05-07T11:25:22.794Z,102817.06
2023-05-07T11:27:49.660Z,102815.38
2023-05-07T11:30:21.943Z,102809.41
2023-05-07T11:32:49.711Z,102816.78
2023-05-07T11:35:16.959Z,102813.06
2023-05-07T11:37:45.917Z,102815.44
2023-05-07T11:40:15.212Z,102815.41
2023-05-07T11:42:44.248Z,102805.44
2023-05-07T11:45:11.741Z,102800.84
2023-05-07T11:47:38.697Z,102803.38
2023-05-07T11:50:08.818Z,102798.75
2023-05-07T11:52:36.501Z,102797.19
2023-05-07T11:55:07.174Z,102794.00
2023-05-07T11:57:35.686Z,102794.03
2023-05-07T12:00:05.629Z,102792.84
2023-05-07T12:02:32.702Z,102799.47
2023-05-07T12:05:01.541Z,102800.81
2023-05-07T12:07:28.231Z,102804.16
2023-05-07T12:09:54.952Z,102802.47
2023-05-07T12:12:21.627Z,102797.03
2023-05-07T12:14:49.097Z,102797.69
2023-05-07T12:17:17.384Z,102788.75
2023-05-07T12:19:46.223Z,102789.75
2023-05-07T12:22:13.683Z,102787.94
2023-05-07T12:24:48.736Z,102779.72
2023-05-07T12:27:16.836Z,102783.72
2023-05-07T12:29:51.268Z,102781.81
2023-05-07T12:32:19.683Z,102778.63
2023-05-07T12:34:47.319Z,102772.56
2023-05-07T12:37:14.096Z,102778.50
2023-05-07T12:39:51.325Z,102785.31
2023-05-07T12:42:24.587Z,102779.81
2023-05-07T12:44:51.697Z,102775.34
2023-05-07T12:47:18.401Z,102778.28
2023-05-07T12:49:46.953Z,102772.00
2023-05-07T12:52:14.160Z,102772.50
2023-05-07T12:54:40.977Z,102772.09
2023-05-07T12:57:11.243Z,102766.28
2023-05-07T12:59:40.975Z,102761.41
2023-05-07T13:02:08.653Z,102761.88
2023-05-07T13:04:36.126Z,102761.44
2023-05-07T13:07:03.463Z,102762.13
2023-05-07T13:09:30.444Z,102758.84
2023-05-07T13:11:57.185Z,102757.91
2023-05-07T13:14:23.961Z,102763.53
2023-05-07T13:16:50.796Z,102759.38
2023-05-07T13:19:18.572Z,102759.28
2023-05-07T13:21:45.226Z,102764.38
2023-05-07T13:24:11.873Z,102758.00
2023-05-07T13:26:38.537Z,102763.41
2023-05-07T13:29:05.172Z,102761.59
2023-05-07T13:31:31.968Z,102753.09
2023-05-07T13:33:58.742Z,102756.16
2023-05-07T13:36:25.402Z,102751.00
2023-05-07T13:38:52.876Z,102760.31
2023-05-07T13:41:19.725Z,102760.41
2023-05-07T13:43:46.518Z,102760.47
2023-05-07T13:46:13.296Z,102758.09
2023-05-07T13:48:40.119Z,102771.94
2023-05-07T13:51:06.836Z,102757.59
2023-05-07T13:53:33.495Z,102758.88
2023-05-07T13:56:00.176Z,102753.06
2023-05-07T13:58:26.886Z,102763.53
2023-05-07T14:00:53.634Z,102751.63
2023-05-07T14:03:20.905Z,102750.28
2023-05-07T14:05:50.230Z,102745.94
2023-05-07T14:08:19.673Z,102748.84
2023-05-07T14:10:47.241Z,102748.28
2023-05-07T14:13:13.915Z,102746.72
2023-05-07T14:15:41.408Z,102741.47
2023-05-07T14:18:08.180Z,102737.06
2023-05-07T14:20:37.756Z,102738.88
2023-05-07T14:23:04.482Z,102741.88
2023-05-07T14:25:31.421Z,102737.00
2023-05-07T14:27:58.086Z,102738.03
2023-05-07T14:30:25.584Z,102736.69
2023-05-07T14:32:52.340Z,102735.09
2023-05-07T14:35:19.147Z,102733.41
2023-05-07T14:37:45.853Z,102726.16
2023-05-07T14:40:13.010Z,102728.06
2023-05-07T14:42:39.908Z,102726.59
2023-05-07T14:45:07.171Z,102728.13
2023-05-07T14:47:33.871Z,102720.66
2023-05-07T14:50:02.285Z,102722.25
2023-05-07T14:52:29.118Z,102712.06
2023-05-07T14:54:55.840Z,102713.31
2023-05-07T14:57:22.773Z,102710.63
2023-05-07T14:59:49.575Z,102714.34
2023-05-07T15:02:16.638Z,102712.38
2023-05-07T15:04:47.085Z,102713.53
2023-05-07T15:07:17.416Z,102716.06
2023-05-07T15:09:45.083Z,102719.72
2023-05-07T15:12:12.629Z,102720.13
2023-05-07T15:14:40.320Z,102717.13
2023-05-07T15:17:07.077Z,102720.00
2023-05-07T15:19:33.811Z,102713.94
2023-05-07T15:22:04.057Z,102714.38
2023-05-07T15:24:31.850Z,102710.28
2023-05-07T15:26:59.305Z,102710.34
2023-05-07T15:29:26.248Z,102706.59
2023-05-07T15:31:53.222Z,102714.59
2023-05-07T15:34:19.983Z,102715.31
2023-05-07T15:36:46.736Z,102715.13
2023-05-07T15:39:13.848Z,102712.13
2023-05-07T15:41:40.623Z,102708.16
2023-05-07T15:44:07.275Z,102700.75
2023-05-07T15:46:33.922Z,102710.31
2023-05-07T15:49:03.981Z,102702.94
2023-05-07T15:51:31.954Z,102709.50
2023-05-07T15:53:58.657Z,102702.81
2023-05-07T15:56:25.443Z,102708.88
2023-05-07T15:58:53.718Z,102716.59
2023-05-07T16:01:20.434Z,102706.34
2023-05-07T16:03:47.310Z,102708.78
2023-05-07T16:06:14.128Z,102715.16
2023-05-07T16:08:41.734Z,102712.09
2023-05-07T16:11:08.437Z,102705.34
2023-05-07T16:13:35.925Z,102699.72
2023-05-07T16:16:02.820Z,102702.50
2023-05-07T16:18:29.504Z,102700.69
2023-05-07T16:20:56.496Z,102705.63
2023-05-07T16:23:23.161Z,102695.91
2023-05-07T16:25:49.934Z,102709.44
2023-05-07T16:28:16.918Z,102712.34
2023-05-07T16:30:43.929Z,102710.75
2023-05-07T16:33:10.830Z,102711.41
2023-05-07T16:35:37.536Z,102709.25
2023-05-07T16:38:10.104Z,102705.78
2023-05-07T16:40:40.391Z,102705.50
2023-05-07T16:43:07.128Z,102700.00
2023-05-07T16:45:33.958Z,102705.50
2023-05-07T16:48:00.803Z,102708.97
2023-05-07T16:50:27.525Z,102704.03
2023-05-07T16:52:54.194Z,102710.91
2023-05-07T16:55:20.966Z,102717.59
2023-05-07T16:57:47.676Z,102705.78
2023-05-07T17:00:14.941Z,102697.84
2023-05-07T17:02:41.687Z,102700.94
2023-05-07T17:05:08.988Z,102704.25
2023-05-07T17:07:35.952Z,102709.16
2023-05-07T17:10:03.206Z,102712.06
2023-05-07T17:12:31.317Z,102710.59
2023-05-07T17:15:00.589Z,102712.06
2023-05-07T17:17:27.355Z,102723.31
2023-05-07T17:19:54.048Z,102726.19
2023-05-07T17:22:20.747Z,102728.09
2023-05-07T17:24:47.765Z,102724.59
2023-05-07T17:27:14.410Z,102730.06
2023-05-07T17:29:41.309Z,102733.84
2023-05-07T17:32:08.634Z,102735.06
2023-05-07T17:34:35.396Z,102736.03
2023-05-07T17:37:02.696Z,102732.59
2023-05-07T17:39:29.604Z,102742.63
2023-05-07T17:41:56.418Z,102735.78
2023-05-07T17:44:23.274Z,102742.25
2023-05-07T17:46:50.082Z,102742.44
2023-05-07T17:49:17.160Z,102741.66
2023-05-07T17:51:54.119Z,102744.53
2023-05-07T17:54:21.852Z,102743.81
2023-05-07T17:56:48.494Z,102749.34
2023-05-07T17:59:15.347Z,102743.41
2023-05-07T18:01:42.393Z,102747.16
2023-05-07T18:04:09.131Z,102747.19
2023-05-07T18:06:36.160Z,102747.16
2023-05-07T18:09:03.092Z,102738.44
2023-05-07T18:11:32.332Z,102737.66
2023-05-07T18:13:59.627Z,102745.59
2023-05-07T18:16:26.648Z,102748.22
2023-05-07T18:18:53.365Z,102748.22
2023-05-07T18:21:20.046Z,102751.00
2023-05-07T18:23:47.391Z,102757.16
2023-05-07T18:26:14.509Z,102752.69
2023-05-07T18:28:41.285Z,102758.00
2023-05-07T18:31:07.993Z,102759.72
2023-05-07T18:33:34.646Z,102762.28
2023-05-07T18:36:01.408Z,102756.09
2023-05-07T18:38:28.146Z,102763.31
2023-05-07T18:41:01.110Z,102760.03
2023-05-07T18:43:27.768Z,102769.94
2023-05-07T18:45:54.446Z,102769.16
2023-05-07T18:48:21.106Z,102778.22
2023-05-07T18:50:48.139Z,102774.94
2023-05-07T18:53:14.789Z,102785.78
2023-05-07T18:55:41.660Z,102777.91
2023-05-07T18:58:08.356Z,102777.09
2023-05-07T19:00:34.989Z,102779.81
2023-05-07T19:03:01.855Z,102787.03
2023-05-07T19:05:28.567Z,102784.47
2023-05-07T19:07:55.270Z,102782.78
2023-05-07T19:10:22.180Z,102784.63
2023-05-07T19:12:51.399Z,102792.63
2023-05-07T19:15:18.130Z,102790.88
2023-05-07T19:17:44.816Z,102790.94
2023-05-07T19:20:12.034Z,102790.09
2023-05-07T19:22:38.694Z,102798.09
2023-05-07T19:25:05.979Z,102793.69
2023-05-07T19:27:32.613Z,102802.56
2023-05-07T19:29:59.293Z,102798.16
2023-05-07T19:32:26.430Z,102796.44
2023-05-07T19:34:53.174Z,102795.56
2023-05-07T19:37:22.923Z,102798.19
2023-05-07T19:39:49.750Z,102789.38
2023-05-07T19:42:16.819Z,102798.28
2023-05-07T19:44:43.744Z,102795.59
2023-05-07T19:47:11.162Z,102795.63
2023-05-07T19:49:38.123Z,102791.22
2023-05-07T19:52:05.035Z,102788.56
2023-05-07T19:54:31.720Z,102786.81
2023-05-07T19:56:58.455Z,102787.72
2023-05-07T19:59:25.318Z,102790.38
2023-05-07T20:01:52.025Z,102788.59
2023-05-07T20:04:18.708Z,102785.97
2023-05-07T20:06:45.389Z,102794.75
2023-05-07T20:09:12.995Z,102789.47
2023-05-07T20:11:40.057Z,102793.88
2023-05-07T20:14:06.807Z,102800.03
2023-05-07T20:16:33.885Z,102793.88
2023-05-07T20:19:00.874Z,102794.75
2023-05-07T20:21:27.662Z,102798.28
2023-05-07T20:23:54.559Z,102796.50
2023-05-07T20:26:21.439Z,102799.16
2023-05-07T20:28:48.214Z,102807.13
2023-05-07T20:31:16.417Z,102800.03
2023-05-07T20:33:43.100Z,102802.69
2023-05-07T20:36:09.836Z,102794.75
2023-05-07T20:38:36.462Z,102793.88
2023-05-07T20:41:07.666Z,102794.75
2023-05-07T20:43:35.488Z,102797.41
2023-05-07T20:46:05.730Z,102805.34
2023-05-07T20:48:33.247Z,102807.97
2023-05-07T20:51:01.255Z,102797.38
2023-05-07T20:53:29.778Z,102800.03
2023-05-07T20:55:56.968Z,102796.47
2023-05-07T20:58:26.744Z,102805.28
2023-05-07T21:00:54.121Z,102805.25
2023-05-07T21:03:21.569Z,102807.00
2023-05-07T21:05:52.708Z,102798.16
2023-05-07T21:08:19.904Z,102807.84
2023-05-07T21:10:47.194Z,102799.00
2023-05-07T21:13:14.096Z,102805.19
2023-05-07T21:15:43.774Z,102809.56
2023-05-07T21:18:11.578Z,102806.00
2023-05-07T21:20:38.451Z,102809.50
2023-05-07T21:23:05.731Z,102801.50
2023-05-07T21:25:32.584Z,102814.72
2023-05-07T21:27:59.893Z,102806.78
2023-05-07T21:30:26.580Z,102821.72
2023-05-07T21:32:55.623Z,102822.56
2023-05-07T21:35:22.535Z,102822.59
2023-05-07T21:37:49.278Z,102817.28
2023-05-07T21:40:16.067Z,102821.66
2023-05-07T21:42:42.742Z,102819.00
2023-05-07T21:45:10.018Z,102818.13
2023-05-07T21:47:36.793Z,102819.84
2023-05-07T21:50:03.776Z,102818.94
2023-05-07T21:52:30.454Z,102815.34
2023-05-07T21:54:57.181Z,102824.13
2023-05-07T21:57:23.848Z,102817.91
2023-05-07T21:59:50.545Z,102815.22
2023-05-07T22:02:17.273Z,102816.09
2023-05-07T22:04:44.078Z,102812.50
2023-05-07T22:07:10.722Z,102820.41
2023-05-07T22:09:37.401Z,102814.25
2023-05-07T22:12:04.325Z,102812.41
2023-05-07T22:14:30.991Z,102814.16
2023-05-07T22:16:57.709Z,102812.34
2023-05-07T22:19:24.482Z,102817.53
2023-05-07T22:21:51.190Z,102820.16
2023-05-07T22:24:17.836Z,102817.41
2023-05-07T22:26:45.220Z,102815.63
2023-05-07T22:29:11.884Z,102815.59
2023-05-07T22:31:38.634Z,102811.13
2023-05-07T22:34:05.378Z,102811.03
2023-05-07T22:36:32.065Z,102811.88
2023-05-07T22:38:58.768Z,102811.84
2023-05-07T22:41:25.741Z,102807.50
2023-05-07T22:43:52.474Z,102803.97
2023-05-07T22:46:19.196Z,102808.41
2023-05-07T22:48:46.013Z,102809.31
2023-05-07T22:51:14.422Z,102809.31
2023-05-07T22:53:41.140Z,102813.66
2023-05-07T22:56:08.383Z,102795.09
2023-05-07T22:58:35.032Z,102805.66
2023-05-07T23:01:02.505Z,102810.00
2023-05-07T23:03:29.623Z,102807.38
2023-05-07T23:05:56.335Z,102804.72
2023-05-07T23:08:23.403Z,102809.94
2023-05-07T23:10:50.063Z,102808.16
2023-05-07T23:13:17.539Z,102809.91
2023-05-07T23:15:44.523Z,102814.38
2023-05-07T23:18:11.406Z,102809.97
2023-05-07T23:20:39.771Z,102809.94
2023-05-07T23:23:06.437Z,102799.38
2023-05-07T23:25:33.187Z,102797.63
2023-05-07T23:27:59.914Z,102799.38
2023-05-07T23:30:26.684Z,102801.19
2023-05-07T23:32:53.502Z,102795.06
2023-05-07T23:35:20.403Z,102800.38
2023-05-07T23:37:47.318Z,102794.22
2023-05-07T23:40:14.177Z,102796.88
2023-05-07T23:42:41.010Z,102791.56
2023-05-07T23:45:08.082Z,102795.94
2023-05-07T23:47:34.812Z,102793.22
2023-05-07T23:50:01.500Z,102789.72
2023-05-07T23:52:28.177Z,102792.31
2023-05-07T23:54:54.822Z,102792.28
2023-05-07T23:57:21.475Z,102794.91
2023-05-07T23:59:48.124Z,102798.38
